Hoegh Transporter — LAKO7 — position and weather

sailwx.info

Track history (hours):
 
Tides and Currents Weather Stations Pressure Air Temp Water Temp Dewpoint Dewpoint Depression Visibility Wind Speed Wind Dir Waves Ship Positions

Hoegh Transporter

Last reported at 2015-Jul-23 15:24 UTC. Time now 2015-Jul-30 00:02 UTC.
Position N 34°45' E 139°32'.

Length 200 m; draft 8.2 m.

Type: Cargo ship. MMSI: 257712000.

Date/timePositionNaut miles runAvg speedWind from/ knotsBaromVisibWave heightAir tempDewpointWater temp
2015-Jul-23 15:24N 34°45' E 139°32'1214.7
2015-Jul-23 14:33N 34°56' E 139°39'1514.9
2015-Jul-23 13:33N 35°10' E 139°45'1111.0
2015-Jul-23 12:33N 35°21' E 139°42'1414.3
2015-Jul-23 11:33N 35°31' E 139°55'10 9.8
2015-Jul-23 10:32N 35°36' E 140°06'0 0.0
2015-Jul-23 09:32N 35°36' E 140°06'0 0.0
2015-Jul-23 08:29N 35°36' E 140°06'0 0.0
2015-Jul-23 07:32N 35°36' E 140°06'0 0.0
2015-Jul-23 06:26N 35°36' E 140°06'0 0.0
2015-Jul-23 05:26N 35°36' E 140°06'0 0.0
2015-Jul-23 04:23N 35°36' E 140°06'0 0.0
2015-Jul-23 03:29N 35°36' E 140°06'0 0.0
2015-Jul-23 02:29N 35°36' E 140°06'0 0.1
2015-Jul-23 01:33N 35°36' E 140°06'0 0.2
2015-Jul-23 00:33N 35°35' E 140°06'8 8.4
2015-Jul-22 23:33N 35°32' E 139°56'1312.7
2015-Jul-22 22:33N 35°23' E 139°45'1212.0
2015-Jul-22 21:34N 35°11' E 139°47'9 9.2
2015-Jul-22 20:33N 35°02' E 139°43'1412.6
2015-Jul-22 19:28N 34°50' E 139°51'1314.3
2015-Jul-22 18:33N 34°53' E 140°06'1816.0
2015-Jul-22 17:25N 35°03' E 140°25'2815.1
2015-Jul-22 15:32N 35°22' E 140°50'33 1.8
2015-Jul-21 21:16N 35°52' E 141°06'1317.6
2015-Jul-21 20:33N 35°40' E 141°06'1817.9
2015-Jul-21 19:33N 35°25' E 140°53'1917.5
2015-Jul-21 18:29N 35°10' E 140°40'1617.5
2015-Jul-21 17:33N 35°02' E 140°23'1717.0
2015-Jul-21 16:33N 34°53' E 140°05'1616.3
2015-Jul-21 15:33N 34°45' E 139°48'1817.3
2015-Jul-21 14:31N 34°38' E 139°28'  
2015-Jul-18 07:33N 24°20' E 120°26'182 8.6
2015-Jul-17 10:22N 22°59' E 117°28'16315.0
2015-Jul-16 23:30N 22°08' E 114°40'1515.8
2015-Jul-16 22:32N 22°08' E 114°24'1312.5
2015-Jul-16 21:30N 22°12' E 114°11'8 8.8
2015-Jul-16 20:34N 22°19' E 114°06'1 0.8
2015-Jul-16 19:28N 22°20' E 114°07'0 0.0
2015-Jul-16 18:29N 22°20' E 114°07'0 0.0
2015-Jul-16 17:31N 22°20' E 114°07'0 0.0
2015-Jul-16 16:31N 22°20' E 114°07'0 0.0
2015-Jul-16 15:31N 22°20' E 114°07'0 0.0
2015-Jul-16 14:31N 22°20' E 114°07'0 0.0
2015-Jul-16 13:31N 22°20' E 114°07'0 0.0
2015-Jul-16 12:31N 22°20' E 114°07'0 0.1
2015-Jul-16 11:33N 22°20' E 114°07'7 6.5
2015-Jul-16 10:25N 22°13' E 114°10'6 6.8
2015-Jul-16 09:32N 22°09' E 114°15'6 5.9
2015-Jul-16 08:33N 22°09' E 114°21'6 6.0
2015-Jul-16 07:32N 22°03' E 114°24'1 0.6
2015-Jul-16 06:31N 22°03' E 114°24'1 1.0
2015-Jul-16 05:32N 22°03' E 114°23'  
Track history (hours):
 
Tides and Currents Weather Stations Pressure Air Temp Water Temp Dewpoint Dewpoint Depression Visibility Wind Speed Wind Dir Waves Ship Positions

Hoegh Transporter

Last reported at 2015-Jul-23 15:24 UTC. Time now 2015-Jul-30 00:02 UTC.
Position N 34°45' E 139°32'.

Length 200 m; draft 8.2 m.

Type: Cargo ship. MMSI: 257712000.

Date/timePositionNaut miles runAvg speedWind from/ knotsBaromVisibWave heightAir tempDewpointWater temp
2015-Jul-23 15:24N 34°45' E 139°32'1214.7
2015-Jul-23 14:33N 34°56' E 139°39'1514.9
2015-Jul-23 13:33N 35°10' E 139°45'1111.0
2015-Jul-23 12:33N 35°21' E 139°42'1414.3
2015-Jul-23 11:33N 35°31' E 139°55'10 9.8
2015-Jul-23 10:32N 35°36' E 140°06'0 0.0
2015-Jul-23 09:32N 35°36' E 140°06'0 0.0
2015-Jul-23 08:29N 35°36' E 140°06'0 0.0
2015-Jul-23 07:32N 35°36' E 140°06'0 0.0
2015-Jul-23 06:26N 35°36' E 140°06'0 0.0
2015-Jul-23 05:26N 35°36' E 140°06'0 0.0
2015-Jul-23 04:23N 35°36' E 140°06'0 0.0
2015-Jul-23 03:29N 35°36' E 140°06'0 0.0
2015-Jul-23 02:29N 35°36' E 140°06'0 0.1
2015-Jul-23 01:33N 35°36' E 140°06'0 0.2
2015-Jul-23 00:33N 35°35' E 140°06'8 8.4
2015-Jul-22 23:33N 35°32' E 139°56'1312.7
2015-Jul-22 22:33N 35°23' E 139°45'1212.0
2015-Jul-22 21:34N 35°11' E 139°47'9 9.2
2015-Jul-22 20:33N 35°02' E 139°43'1412.6
2015-Jul-22 19:28N 34°50' E 139°51'1314.3
2015-Jul-22 18:33N 34°53' E 140°06'1816.0
2015-Jul-22 17:25N 35°03' E 140°25'2815.1
2015-Jul-22 15:32N 35°22' E 140°50'33 1.8
2015-Jul-21 21:16N 35°52' E 141°06'1317.6
2015-Jul-21 20:33N 35°40' E 141°06'1817.9
2015-Jul-21 19:33N 35°25' E 140°53'1917.5
2015-Jul-21 18:29N 35°10' E 140°40'1617.5
2015-Jul-21 17:33N 35°02' E 140°23'1717.0
2015-Jul-21 16:33N 34°53' E 140°05'1616.3
2015-Jul-21 15:33N 34°45' E 139°48'1817.3
2015-Jul-21 14:31N 34°38' E 139°28'  
2015-Jul-18 07:33N 24°20' E 120°26'182 8.6
2015-Jul-17 10:22N 22°59' E 117°28'16315.0
2015-Jul-16 23:30N 22°08' E 114°40'1515.8
2015-Jul-16 22:32N 22°08' E 114°24'1312.5
2015-Jul-16 21:30N 22°12' E 114°11'8 8.8
2015-Jul-16 20:34N 22°19' E 114°06'1 0.8
2015-Jul-16 19:28N 22°20' E 114°07'0 0.0
2015-Jul-16 18:29N 22°20' E 114°07'0 0.0
2015-Jul-16 17:31N 22°20' E 114°07'0 0.0
2015-Jul-16 16:31N 22°20' E 114°07'0 0.0
2015-Jul-16 15:31N 22°20' E 114°07'0 0.0
2015-Jul-16 14:31N 22°20' E 114°07'0 0.0
2015-Jul-16 13:31N 22°20' E 114°07'0 0.0
2015-Jul-16 12:31N 22°20' E 114°07'0 0.1
2015-Jul-16 11:33N 22°20' E 114°07'7 6.5
2015-Jul-16 10:25N 22°13' E 114°10'6 6.8
2015-Jul-16 09:32N 22°09' E 114°15'6 5.9
2015-Jul-16 08:33N 22°09' E 114°21'6 6.0
2015-Jul-16 07:32N 22°03' E 114°24'1 0.6
2015-Jul-16 06:31N 22°03' E 114°24'1 1.0
2015-Jul-16 05:32N 22°03' E 114°23'  

Dump ship's entire track history